Time;durP1;ratioP1;P1;durP2;ratioP2;P2;SDS_P1;SDS_P2;PMS_P1;PMS_P2;Temp;Humidity;BMP_temperature;BMP_pressure;BME280_temperature;BME280_humidity;BME280_pressure;Samples;Min_cycle;Max_cycle;Signal;HPM_P1;HPM_P2
2023/11/24 00:01:00;;;;;;;;;4.33;4.33;;;;;;;;5076443;27;45529;-68
2023/11/24 00:03:25;;;;;;;;;5.00;3.00;;;;;;;;5076842;27;45369;-67
2023/11/24 00:05:50;;;;;;;;;4.67;4.67;;;;;;;;5074571;28;46569;-67
2023/11/24 00:08:15;;;;;;;;;5.00;5.00;;;;;;;;5075535;28;45432;-66
2023/11/24 00:10:43;;;;;;;;;7.00;5.67;;;;;;;;5076274;28;45358;-68
2023/11/24 00:13:08;;;;;;;;;7.00;3.67;;;;;;;;5076253;27;45612;-68
2023/11/24 00:15:36;;;;;;;;;3.67;3.33;;;;;;;;5070262;28;46667;-67
2023/11/24 00:18:02;;;;;;;;;5.00;2.33;;;;;;;;5076242;27;45520;-67
2023/11/24 00:20:27;;;;;;;;;9.33;4.00;;;;;;;;5076649;28;45428;-67
2023/11/24 00:22:53;;;;;;;;;6.00;4.33;;;;;;;;5076814;27;45362;-67
2023/11/24 00:25:18;;;;;;;;;9.00;5.00;;;;;;;;5076297;27;46357;-67
2023/11/24 00:27:43;;;;;;;;;6.33;4.00;;;;;;;;5072616;28;45422;-68
2023/11/24 00:30:08;;;;;;;;;8.00;4.00;;;;;;;;5067016;28;45358;-67
2023/11/24 00:32:38;;;;;;;;;10.33;4.33;;;;;;;;5075774;27;45507;-71
2023/11/24 00:35:06;;;;;;;;;13.00;7.00;;;;;;;;5075924;27;47371;-67
2023/11/24 00:37:31;;;;;;;;;6.00;6.00;;;;;;;;5076088;27;45329;-67
2023/11/24 00:39:57;;;;;;;;;5.33;4.00;;;;;;;;5076457;28;45436;-71
2023/11/24 00:42:23;;;;;;;;;12.00;5.00;;;;;;;;5076125;27;45450;-71
2023/11/24 00:44:48;;;;;;;;;6.33;5.33;;;;;;;;5075771;27;46694;-67
2023/11/24 00:47:13;;;;;;;;;5.00;5.00;;;;;;;;5075930;27;45508;-67
2023/11/24 00:49:39;;;;;;;;;7.00;4.00;;;;;;;;5075920;27;45408;-67
2023/11/24 00:52:04;;;;;;;;;4.00;4.00;;;;;;;;5076108;27;45541;-67
2023/11/24 00:54:29;;;;;;;;;6.67;4.00;;;;;;;;5075776;28;47224;-66
2023/11/24 00:56:55;;;;;;;;;4.00;4.00;;;;;;;;5076092;27;45406;-69
2023/11/24 00:59:20;;;;;;;;;11.33;5.33;;;;;;;;5076348;27;45348;-67
2023/11/24 01:01:46;;;;;;;;;5.00;4.00;;;;;;;;5075343;27;45403;-71
2023/11/24 01:04:11;;;;;;;;;6.67;4.00;;;;;;;;5071240;28;45754;-68
2023/11/24 01:06:36;;;;;;;;;7.67;5.00;;;;;;;;5073762;27;45389;-67
2023/11/24 01:09:01;;;;;;;;;7.00;6.00;;;;;;;;5077188;27;45243;-68
2023/11/24 01:11:27;;;;;;;;;8.00;4.00;;;;;;;;5079397;27;45532;-67
2023/11/24 01:13:52;;;;;;;;;7.00;6.33;;;;;;;;5078998;27;46385;-67
2023/11/24 01:16:17;;;;;;;;;5.00;5.00;;;;;;;;5078803;28;45441;-69
2023/11/24 01:18:42;;;;;;;;;6.33;5.00;;;;;;;;5079284;27;45695;-67
2023/11/24 01:21:09;;;;;;;;;7.00;6.00;;;;;;;;5078859;27;45540;-70
2023/11/24 01:23:35;;;;;;;;;5.67;5.00;;;;;;;;5078781;27;47270;-67
2023/11/24 01:26:00;;;;;;;;;8.00;6.00;;;;;;;;5078963;28;45160;-66
2023/11/24 01:28:26;;;;;;;;;6.67;4.00;;;;;;;;5079280;27;45206;-71
2023/11/24 01:30:52;;;;;;;;;6.00;4.00;;;;;;;;5076513;27;45558;-68
2023/11/24 01:33:17;;;;;;;;;10.00;5.67;;;;;;;;5079062;27;47199;-68
2023/11/24 01:35:42;;;;;;;;;6.33;5.00;;;;;;;;5078200;27;45293;-72
2023/11/24 01:38:09;;;;;;;;;6.33;6.00;;;;;;;;5079458;27;45377;-67
2023/11/24 01:40:34;;;;;;;;;9.00;7.00;;;;;;;;5078664;27;45447;-67
2023/11/24 01:43:00;;;;;;;;;7.00;6.00;;;;;;;;5078697;27;47257;-67
2023/11/24 01:45:25;;;;;;;;;10.00;6.67;;;;;;;;5078221;27;45405;-67
2023/11/24 01:47:52;;;;;;;;;8.00;6.00;;;;;;;;5078997;27;45552;-67
2023/11/24 01:50:17;;;;;;;;;4.00;4.00;;;;;;;;5078439;27;45505;-67
2023/11/24 01:52:43;;;;;;;;;10.00;6.00;;;;;;;;5078118;28;47504;-67
2023/11/24 01:55:12;;;;;;;;;6.33;5.00;;;;;;;;5078871;27;45380;-67
2023/11/24 01:57:39;;;;;;;;;12.00;7.33;;;;;;;;5072985;28;45303;-68
2023/11/24 02:00:05;;;;;;;;;5.00;5.00;;;;;;;;5078677;27;45856;-67
2023/11/24 02:02:30;;;;;;;;;10.00;6.67;;;;;;;;5077948;27;46428;-69
2023/11/24 02:04:55;;;;;;;;;7.00;6.67;;;;;;;;5078676;27;45493;-67
2023/11/24 02:07:22;;;;;;;;;7.33;6.00;;;;;;;;5078601;27;45302;-70
2023/11/24 02:09:48;;;;;;;;;11.00;7.33;;;;;;;;5077927;27;45411;-69
2023/11/24 02:12:13;;;;;;;;;13.00;7.00;;;;;;;;5077709;27;46301;-70
2023/11/24 02:14:38;;;;;;;;;7.33;5.33;;;;;;;;5077608;27;45377;-67
2023/11/24 02:17:04;;;;;;;;;7.33;5.67;;;;;;;;5078184;27;45243;-67
2023/11/24 02:19:30;;;;;;;;;10.33;7.00;;;;;;;;5078291;27;45424;-66
2023/11/24 02:21:56;;;;;;;;;8.33;7.00;;;;;;;;5074572;27;45481;-70
2023/11/24 02:24:21;;;;;;;;;10.00;6.00;;;;;;;;5078274;27;45372;-66
2023/11/24 02:26:46;;;;;;;;;10.33;7.00;;;;;;;;5076701;27;45236;-67
2023/11/24 02:29:12;;;;;;;;;8.67;7.00;;;;;;;;5075115;27;45335;-67
2023/11/24 02:31:37;;;;;;;;;7.33;6.33;;;;;;;;5073125;28;46754;-70
2023/11/24 02:34:03;;;;;;;;;10.67;7.00;;;;;;;;5076752;27;45392;-70
2023/11/24 02:36:30;;;;;;;;;7.33;5.00;;;;;;;;5078154;27;45313;-67
2023/11/24 02:38:56;;;;;;;;;9.33;7.00;;;;;;;;5077989;27;45603;-67
2023/11/24 02:41:21;;;;;;;;;11.00;6.00;;;;;;;;5075720;28;46403;-69
2023/11/24 02:43:46;;;;;;;;;6.33;6.33;;;;;;;;5077377;27;46466;-68
2023/11/24 02:46:12;;;;;;;;;8.00;8.00;;;;;;;;5070819;27;45294;-71
2023/11/24 02:48:38;;;;;;;;;6.33;5.00;;;;;;;;5073594;28;45440;-67
2023/11/24 02:51:04;;;;;;;;;11.00;6.67;;;;;;;;5077064;27;45263;-71
2023/11/24 02:53:29;;;;;;;;;4.67;4.00;;;;;;;;5077798;27;45426;-67
2023/11/24 02:55:55;;;;;;;;;5.33;5.33;;;;;;;;5078041;27;45453;-68
2023/11/24 02:58:20;;;;;;;;;10.33;6.00;;;;;;;;5077790;27;45585;-67
2023/11/24 03:00:45;;;;;;;;;10.33;8.33;;;;;;;;5074803;27;46298;-68
2023/11/24 03:03:10;;;;;;;;;5.00;5.00;;;;;;;;5077543;27;45429;-66
2023/11/24 03:05:35;;;;;;;;;8.67;6.33;;;;;;;;5077598;27;47193;-68
2023/11/24 03:08:03;;;;;;;;;7.00;6.00;;;;;;;;5077638;28;45379;-67
2023/11/24 03:10:28;;;;;;;;;7.33;4.33;;;;;;;;5076533;28;46612;-67
2023/11/24 03:12:53;;;;;;;;;5.67;5.00;;;;;;;;5077426;28;45460;-68
2023/11/24 03:15:18;;;;;;;;;9.67;6.00;;;;;;;;5076212;28;45452;-68
2023/11/24 03:17:43;;;;;;;;;10.00;5.33;;;;;;;;5077380;27;45297;-67
2023/11/24 03:20:11;;;;;;;;;6.33;6.00;;;;;;;;5077148;27;46254;-71
2023/11/24 03:22:37;;;;;;;;;7.00;5.00;;;;;;;;5076620;27;45227;-69
2023/11/24 03:25:03;;;;;;;;;5.33;5.00;;;;;;;;5077549;27;45315;-66
2023/11/24 03:27:29;;;;;;;;;9.33;6.00;;;;;;;;5076902;27;45451;-71
2023/11/24 03:29:54;;;;;;;;;6.33;6.33;;;;;;;;5075907;27;46260;-67
2023/11/24 03:32:19;;;;;;;;;8.00;5.33;;;;;;;;5075347;28;45416;-69
2023/11/24 03:34:44;;;;;;;;;10.00;5.00;;;;;;;;5077657;27;45388;-69
2023/11/24 03:37:09;;;;;;;;;5.67;5.67;;;;;;;;5077067;27;45427;-69
2023/11/24 03:39:34;;;;;;;;;6.00;6.00;;;;;;;;5077260;27;46375;-67
2023/11/24 03:41:59;;;;;;;;;7.00;5.00;;;;;;;;5074890;27;45615;-66
2023/11/24 03:44:25;;;;;;;;;4.00;4.00;;;;;;;;5076938;27;45594;-67
2023/11/24 03:46:50;;;;;;;;;7.00;6.00;;;;;;;;5075118;27;45418;-67
2023/11/24 03:49:15;;;;;;;;;6.00;4.00;;;;;;;;5073813;28;46996;-67
2023/11/24 03:51:40;;;;;;;;;7.33;6.33;;;;;;;;5075174;28;45435;-68
2023/11/24 03:54:07;;;;;;;;;7.67;4.00;;;;;;;;5076250;27;45417;-71
2023/11/24 03:56:32;;;;;;;;;6.00;5.00;;;;;;;;5073093;27;45893;-67
2023/11/24 03:58:57;;;;;;;;;11.00;6.00;;;;;;;;5072120;27;45662;-67
2023/11/24 04:01:22;;;;;;;;;6.00;4.67;;;;;;;;5076215;27;45314;-68
2023/11/24 04:03:48;;;;;;;;;5.00;5.00;;;;;;;;5076807;27;45634;-67
2023/11/24 04:06:14;;;;;;;;;9.33;5.33;;;;;;;;5076775;27;45261;-67
2023/11/24 04:08:39;;;;;;;;;8.33;6.67;;;;;;;;5076206;27;46423;-67
2023/11/24 04:11:04;;;;;;;;;8.33;6.33;;;;;;;;5075012;27;45386;-68
2023/11/24 04:13:30;;;;;;;;;11.33;6.00;;;;;;;;5076826;28;45306;-70
2023/11/24 04:15:55;;;;;;;;;8.33;5.33;;;;;;;;5075547;27;45227;-70
2023/11/24 04:18:20;;;;;;;;;6.00;6.00;;;;;;;;5075611;27;45807;-67
2023/11/24 04:20:45;;;;;;;;;8.00;6.00;;;;;;;;5075290;27;45395;-69
2023/11/24 04:23:13;;;;;;;;;6.00;5.00;;;;;;;;5076515;27;45467;-68
2023/11/24 04:25:40;;;;;;;;;9.00;6.00;;;;;;;;5076171;27;45441;-69
2023/11/24 04:28:05;;;;;;;;;7.33;5.00;;;;;;;;5075754;27;46704;-67
2023/11/24 04:30:30;;;;;;;;;4.00;4.00;;;;;;;;5073250;28;45633;-67
2023/11/24 04:32:57;;;;;;;;;5.00;5.00;;;;;;;;5076887;27;45350;-69
2023/11/24 04:35:22;;;;;;;;;7.00;7.00;;;;;;;;5076295;27;45461;-67
2023/11/24 04:37:48;;;;;;;;;5.00;5.00;;;;;;;;5076325;27;46561;-68
2023/11/24 04:40:14;;;;;;;;;5.00;5.00;;;;;;;;5076255;27;45417;-68
2023/11/24 04:42:39;;;;;;;;;7.67;5.00;;;;;;;;5075887;27;45337;-70
2023/11/24 04:45:06;;;;;;;;;10.33;6.67;;;;;;;;5078732;27;45319;-67
2023/11/24 04:47:31;;;;;;;;;9.33;5.00;;;;;;;;5075287;27;47433;-69
2023/11/24 04:49:56;;;;;;;;;6.00;6.00;;;;;;;;5078874;27;45471;-67
2023/11/24 04:52:22;;;;;;;;;12.67;6.33;;;;;;;;5079024;27;45385;-67
2023/11/24 04:54:47;;;;;;;;;6.00;4.00;;;;;;;;5072557;27;46744;-67
2023/11/24 04:57:12;;;;;;;;;6.33;6.33;;;;;;;;5076833;27;46523;-67
2023/11/24 04:59:40;;;;;;;;;6.00;6.00;;;;;;;;5079271;28;45199;-68
2023/11/24 05:02:06;;;;;;;;;5.00;5.00;;;;;;;;5079582;27;45207;-67
2023/11/24 05:04:33;;;;;;;;;5.33;5.00;;;;;;;;5079094;27;45492;-71
2023/11/24 05:06:58;;;;;;;;;5.33;5.00;;;;;;;;5079690;27;47532;-67
2023/11/24 05:09:23;;;;;;;;;9.00;6.00;;;;;;;;5078677;27;45511;-67
2023/11/24 05:11:48;;;;;;;;;6.67;6.00;;;;;;;;5079688;27;45449;-68
2023/11/24 05:14:14;;;;;;;;;6.00;5.00;;;;;;;;5066328;27;45396;-67
2023/11/24 05:16:39;;;;;;;;;10.00;5.67;;;;;;;;5074925;27;46224;-70
2023/11/24 05:19:04;;;;;;;;;5.00;5.00;;;;;;;;5078699;27;45389;-67
2023/11/24 05:21:29;;;;;;;;;7.67;6.00;;;;;;;;5079144;27;45369;-69
2023/11/24 05:23:55;;;;;;;;;7.33;6.00;;;;;;;;5079210;27;45393;-68
2023/11/24 05:26:22;;;;;;;;;7.33;7.33;;;;;;;;5079288;27;46900;-69
2023/11/24 05:28:47;;;;;;;;;5.33;5.00;;;;;;;;5078130;27;45444;-68
2023/11/24 05:31:13;;;;;;;;;11.00;8.00;;;;;;;;5075774;27;45411;-71
2023/11/24 05:33:38;;;;;;;;;6.00;6.00;;;;;;;;5079011;28;45334;-67
2023/11/24 05:36:08;;;;;;;;;12.33;6.00;;;;;;;;5077980;27;46379;-68
2023/11/24 05:38:33;;;;;;;;;9.00;7.00;;;;;;;;5078694;27;45448;-68
2023/11/24 05:40:59;;;;;;;;;7.00;5.33;;;;;;;;5078607;27;45476;-68
2023/11/24 05:43:24;;;;;;;;;10.67;6.00;;;;;;;;5078364;27;45627;-67
2023/11/24 05:45:49;;;;;;;;;5.67;5.33;;;;;;;;5078918;27;45640;-67
2023/11/24 05:48:14;;;;;;;;;6.00;6.00;;;;;;;;5076411;27;45409;-67
2023/11/24 05:50:39;;;;;;;;;6.33;5.00;;;;;;;;5078119;27;46547;-69
2023/11/24 05:53:04;;;;;;;;;7.67;6.00;;;;;;;;5078570;27;45630;-70
2023/11/24 05:55:30;;;;;;;;;10.33;6.67;;;;;;;;5077719;27;45435;-67
2023/11/24 05:57:56;;;;;;;;;8.00;7.00;;;;;;;;5078307;27;45282;-67
2023/11/24 06:00:21;;;;;;;;;11.00;10.00;;;;;;;;5078240;27;45468;-66
2023/11/24 06:02:47;;;;;;;;;9.67;7.00;;;;;;;;5078296;27;45462;-66
2023/11/24 06:05:12;;;;;;;;;15.00;5.00;;;;;;;;5078627;27;46440;-69
2023/11/24 06:07:40;;;;;;;;;7.00;6.33;;;;;;;;5078122;27;45341;-69
2023/11/24 06:10:06;;;;;;;;;6.00;5.00;;;;;;;;5078525;27;45460;-69
2023/11/24 06:12:31;;;;;;;;;6.67;6.00;;;;;;;;5075638;27;45410;-67
2023/11/24 06:14:57;;;;;;;;;8.00;7.00;;;;;;;;5078265;28;46415;-68
2023/11/24 06:17:22;;;;;;;;;8.00;5.00;;;;;;;;5066524;27;45332;-68
2023/11/24 06:19:48;;;;;;;;;5.67;5.67;;;;;;;;5077593;28;45326;-67
2023/11/24 06:22:13;;;;;;;;;9.33;5.67;;;;;;;;5078274;27;45647;-67
2023/11/24 06:24:38;;;;;;;;;8.00;6.67;;;;;;;;5075937;27;46485;-67
2023/11/24 06:27:04;;;;;;;;;6.00;3.00;;;;;;;;5074072;27;45452;-68
2023/11/24 06:29:29;;;;;;;;;7.00;4.00;;;;;;;;5065799;27;45849;-69
2023/11/24 06:31:54;;;;;;;;;8.00;5.00;;;;;;;;5072305;27;45386;-68
2023/11/24 06:34:20;;;;;;;;;5.00;5.00;;;;;;;;5077336;28;46491;-67
2023/11/24 06:36:46;;;;;;;;;4.33;3.33;;;;;;;;5074120;27;45659;-67
2023/11/24 06:39:11;;;;;;;;;5.00;4.00;;;;;;;;5076464;27;45473;-69
2023/11/24 06:41:36;;;;;;;;;6.00;5.00;;;;;;;;5076358;27;45611;-67
2023/11/24 06:44:02;;;;;;;;;4.33;3.67;;;;;;;;5075400;27;46629;-70
2023/11/24 06:46:27;;;;;;;;;4.00;4.00;;;;;;;;5073766;27;45452;-67
2023/11/24 06:48:52;;;;;;;;;7.33;5.33;;;;;;;;5072483;28;45536;-68
2023/11/24 06:51:18;;;;;;;;;5.00;3.67;;;;;;;;5071775;27;45547;-71
2023/11/24 06:53:43;;;;;;;;;4.00;4.00;;;;;;;;5070931;27;47425;-68
2023/11/24 06:56:08;;;;;;;;;5.00;4.00;;;;;;;;5069819;27;45393;-68
2023/11/24 06:58:33;;;;;;;;;5.00;4.00;;;;;;;;5072234;27;45751;-68
2023/11/24 07:00:59;;;;;;;;;8.00;5.33;;;;;;;;5071640;28;45435;-68
2023/11/24 07:03:25;;;;;;;;;4.00;3.00;;;;;;;;5070821;27;47453;-68
2023/11/24 07:05:50;;;;;;;;;4.00;4.00;;;;;;;;5067809;27;45509;-68
2023/11/24 07:08:16;;;;;;;;;5.00;4.67;;;;;;;;5072271;28;45396;-70
2023/11/24 07:10:41;;;;;;;;;3.33;3.33;;;;;;;;5075833;27;45507;-68
2023/11/24 07:13:07;;;;;;;;;5.67;4.00;;;;;;;;5075329;28;46484;-68
2023/11/24 07:15:32;;;;;;;;;6.00;6.00;;;;;;;;5074807;27;45386;-67
2023/11/24 07:17:57;;;;;;;;;6.00;4.00;;;;;;;;5067666;27;45277;-67
2023/11/24 07:20:22;;;;;;;;;3.33;3.00;;;;;;;;5079572;27;45508;-67
2023/11/24 07:22:47;;;;;;;;;7.67;5.00;;;;;;;;5074550;27;46375;-68
2023/11/24 07:25:13;;;;;;;;;4.33;4.33;;;;;;;;5065719;27;45718;-67
2023/11/24 07:27:39;;;;;;;;;4.00;4.00;;;;;;;;5062841;28;45908;-69
2023/11/24 07:30:04;;;;;;;;;5.33;4.00;;;;;;;;5064614;27;45606;-69
2023/11/24 07:32:29;;;;;;;;;9.67;3.00;;;;;;;;5072109;27;45505;-69
2023/11/24 07:34:55;;;;;;;;;7.33;4.00;;;;;;;;5070632;27;45482;-69
2023/11/24 07:37:20;;;;;;;;;6.00;3.00;;;;;;;;5074172;27;45519;-69
2023/11/24 07:39:45;;;;;;;;;5.00;2.00;;;;;;;;5073768;27;45421;-69
2023/11/24 07:42:11;;;;;;;;;2.00;2.00;;;;;;;;5071920;27;46637;-69
2023/11/24 07:44:36;;;;;;;;;2.67;2.67;;;;;;;;5070739;28;45373;-69
2023/11/24 07:47:02;;;;;;;;;2.67;1.33;;;;;;;;5070115;27;45856;-71
2023/11/24 07:49:27;;;;;;;;;2.00;2.00;;;;;;;;5073357;27;45445;-68
2023/11/24 07:51:52;;;;;;;;;3.25;1.25;;;;;;;;5150761;22;1119912;-69
2023/11/24 07:54:17;;;;;;;;;2.00;1.67;;;;;;;;5074427;28;45505;-68
2023/11/24 07:56:43;;;;;;;;;1.67;1.00;;;;;;;;5069289;27;45452;-70
2023/11/24 07:59:11;;;;;;;;;6.00;2.00;;;;;;;;5073708;27;45511;-71
2023/11/24 08:01:36;;;;;;;;;2.00;1.67;;;;;;;;5073891;27;46453;-69
2023/11/24 08:04:02;;;;;;;;;2.67;1.67;;;;;;;;5074337;27;45272;-68
2023/11/24 08:06:27;;;;;;;;;6.00;2.33;;;;;;;;5067838;27;45442;-68
2023/11/24 08:08:52;;;;;;;;;2.33;2.00;;;;;;;;5065355;27;45511;-70
2023/11/24 08:11:18;;;;;;;;;3.33;1.00;;;;;;;;5073532;27;45960;-70
2023/11/24 08:13:44;;;;;;;;;7.00;1.00;;;;;;;;5069800;27;45875;-68
2023/11/24 08:16:11;;;;;;;;;4.00;1.67;;;;;;;;5068812;27;45419;-68
2023/11/24 08:18:36;;;;;;;;;2.00;2.00;;;;;;;;5074449;28;45597;-68
2023/11/24 08:21:04;;;;;;;;;5.00;2.00;;;;;;;;5073921;27;46538;-69
2023/11/24 08:23:30;;;;;;;;;2.67;1.67;;;;;;;;5077476;27;45422;-68
2023/11/24 08:25:55;;;;;;;;;4.00;2.00;;;;;;;;5078168;27;45706;-68
2023/11/24 08:28:20;;;;;;;;;3.33;2.00;;;;;;;;5078483;27;45446;-68
2023/11/24 08:30:47;;;;;;;;;2.67;2.00;;;;;;;;5074464;27;47155;-68
2023/11/24 08:33:12;;;;;;;;;7.67;2.00;;;;;;;;5076662;27;45509;-67
2023/11/24 08:35:38;;;;;;;;;5.67;2.67;;;;;;;;5078213;27;45346;-68
2023/11/24 08:38:03;;;;;;;;;3.33;2.00;;;;;;;;5076616;27;45473;-69
2023/11/24 08:40:29;;;;;;;;;4.00;2.33;;;;;;;;5077926;27;46602;-68
2023/11/24 08:42:54;;;;;;;;;1.00;1.00;;;;;;;;5076732;27;45582;-68
2023/11/24 08:45:19;;;;;;;;;4.00;2.00;;;;;;;;5078694;27;45632;-68
2023/11/24 08:47:46;;;;;;;;;5.33;2.00;;;;;;;;5073806;28;47337;-70
2023/11/24 08:50:13;;;;;;;;;5.33;2.00;;;;;;;;5076366;27;46457;-68
2023/11/24 08:52:38;;;;;;;;;2.67;2.00;;;;;;;;5076717;27;45440;-68
2023/11/24 08:55:05;;;;;;;;;4.67;3.67;;;;;;;;5077474;27;45498;-68
2023/11/24 08:57:31;;;;;;;;;6.33;1.33;;;;;;;;5078241;27;45382;-69
2023/11/24 08:59:56;;;;;;;;;5.33;1.00;;;;;;;;5076864;27;48040;-68
2023/11/24 09:02:22;;;;;;;;;5.67;2.00;;;;;;;;5077776;27;45963;-68
2023/11/24 09:04:47;;;;;;;;;3.00;2.00;;;;;;;;5077201;27;45364;-68
2023/11/24 09:07:13;;;;;;;;;11.33;3.00;;;;;;;;5075723;27;45454;-68
2023/11/24 09:09:38;;;;;;;;;5.00;1.00;;;;;;;;5076660;28;45739;-68
2023/11/24 09:12:05;;;;;;;;;3.67;2.00;;;;;;;;5077326;27;45541;-71
2023/11/24 09:14:32;;;;;;;;;4.00;2.00;;;;;;;;5075726;28;45449;-69
2023/11/24 09:16:57;;;;;;;;;3.00;1.00;;;;;;;;5077296;27;45510;-72
2023/11/24 09:19:23;;;;;;;;;2.67;2.00;;;;;;;;5076410;27;47454;-70
2023/11/24 09:21:48;;;;;;;;;3.00;2.00;;;;;;;;5076789;27;45441;-71
2023/11/24 09:24:14;;;;;;;;;4.00;2.00;;;;;;;;5077047;27;45456;-69
2023/11/24 09:26:41;;;;;;;;;3.00;1.33;;;;;;;;5077366;27;45534;-69
2023/11/24 09:29:07;;;;;;;;;4.00;1.00;;;;;;;;5076493;28;46628;-69
2023/11/24 09:31:34;;;;;;;;;3.00;2.00;;;;;;;;5076047;27;45202;-69
2023/11/24 09:34:00;;;;;;;;;4.33;3.33;;;;;;;;5074629;27;45251;-70
2023/11/24 09:36:25;;;;;;;;;1.00;1.00;;;;;;;;5076321;27;45548;-69
2023/11/24 09:38:51;;;;;;;;;1.67;1.67;;;;;;;;5076034;27;45568;-70
2023/11/24 09:41:17;;;;;;;;;2.67;2.33;;;;;;;;5076363;27;45540;-69
2023/11/24 09:43:42;;;;;;;;;1.00;1.00;;;;;;;;5075801;27;45521;-70
2023/11/24 09:46:08;;;;;;;;;3.67;1.00;;;;;;;;5076041;27;45459;-71
2023/11/24 09:48:34;;;;;;;;;3.00;1.00;;;;;;;;5075378;27;47395;-69
2023/11/24 09:51:03;;;;;;;;;2.33;2.33;;;;;;;;5074779;27;45460;-69
2023/11/24 09:53:33;;;;;;;;;2.67;1.00;;;;;;;;5074302;28;45495;-69
2023/11/24 09:55:58;;;;;;;;;2.00;2.00;;;;;;;;5076113;27;45708;-70
2023/11/24 09:58:25;;;;;;;;;4.67;1.67;;;;;;;;5075944;27;46363;-70
2023/11/24 10:00:52;;;;;;;;;2.00;2.00;;;;;;;;5073773;27;45491;-70
2023/11/24 10:03:18;;;;;;;;;5.00;2.00;;;;;;;;5074626;28;45441;-69
2023/11/24 10:05:43;;;;;;;;;4.00;1.00;;;;;;;;5077013;27;45594;-69
2023/11/24 10:08:09;;;;;;;;;5.00;2.00;;;;;;;;5075467;27;46141;-69
2023/11/24 10:10:34;;;;;;;;;3.33;2.00;;;;;;;;5080298;27;45575;-68
2023/11/24 10:13:01;;;;;;;;;3.00;1.00;;;;;;;;5075104;27;45565;-69
2023/11/24 10:15:27;;;;;;;;;2.00;1.00;;;;;;;;5075083;27;45394;-70
2023/11/24 10:17:52;;;;;;;;;1.67;1.00;;;;;;;;5075697;27;45843;-69
2023/11/24 10:20:18;;;;;;;;;1.00;1.00;;;;;;;;5075256;27;45462;-71
2023/11/24 10:22:50;;;;;;;;;4.00;1.33;;;;;;;;5080406;27;45646;-69
2023/11/24 10:25:22;;;;;;;;;2.33;2.00;;;;;;;;5076038;27;45472;-69
2023/11/24 10:27:47;;;;;;;;;5.00;1.00;;;;;;;;5074710;27;46687;-69
2023/11/24 10:30:13;;;;;;;;;3.67;2.00;;;;;;;;5074048;27;45420;-68
2023/11/24 10:32:39;;;;;;;;;2.00;2.00;;;;;;;;5076035;27;45445;-68
2023/11/24 10:35:06;;;;;;;;;3.00;1.00;;;;;;;;5074068;27;45540;-69
2023/11/24 10:37:33;;;;;;;;;3.33;2.00;;;;;;;;5075243;27;46688;-68
2023/11/24 10:40:00;;;;;;;;;4.00;1.67;;;;;;;;5074317;27;46968;-68
2023/11/24 10:42:31;;;;;;;;;6.00;2.00;;;;;;;;5073380;27;45314;-71
2023/11/24 10:44:59;;;;;;;;;2.67;1.67;;;;;;;;5074253;27;45466;-68
2023/11/24 10:47:28;;;;;;;;;3.67;3.00;;;;;;;;5075407;27;47355;-67
2023/11/24 10:50:06;;;;;;;;;7.33;2.00;;;;;;;;5075740;27;45330;-71
2023/11/24 10:52:32;;;;;;;;;5.00;2.00;;;;;;;;5076192;27;45400;-67
2023/11/24 10:55:04;;;;;;;;;6.00;1.00;;;;;;;;5076218;27;45380;-69
2023/11/24 10:57:32;;;;;;;;;2.00;2.00;;;;;;;;5076094;27;47470;-67
2023/11/24 10:59:57;;;;;;;;;3.67;3.00;;;;;;;;5076322;27;45616;-71
2023/11/24 11:02:25;;;;;;;;;2.67;1.00;;;;;;;;5076365;27;45693;-68
2023/11/24 11:05:00;;;;;;;;;3.00;1.67;;;;;;;;5077110;27;45619;-67
2023/11/24 11:07:36;;;;;;;;;3.33;3.33;;;;;;;;5070619;28;45716;-68
2023/11/24 11:10:12;;;;;;;;;5.67;2.67;;;;;;;;5073981;28;45476;-68
2023/11/24 11:12:40;;;;;;;;;3.00;2.00;;;;;;;;5072378;28;45472;-68
2023/11/24 11:15:10;;;;;;;;;2.67;1.00;;;;;;;;5076950;27;45572;-68
2023/11/24 11:17:37;;;;;;;;;3.00;2.00;;;;;;;;5075881;27;47244;-67
2023/11/24 11:20:20;;;;;;;;;3.67;1.33;;;;;;;;5076832;27;45524;-68
2023/11/24 11:22:46;;;;;;;;;7.33;3.33;;;;;;;;5077058;27;45402;-71
2023/11/24 11:25:27;;;;;;;;;5.00;2.00;;;;;;;;5077029;27;45646;-68
2023/11/24 11:27:55;;;;;;;;;6.33;3.67;;;;;;;;5076754;27;47580;-68
2023/11/24 11:30:26;;;;;;;;;1.00;1.00;;;;;;;;5070136;27;45493;-70
2023/11/24 11:33:14;;;;;;;;;4.67;3.00;;;;;;;;5076928;27;45423;-70
2023/11/24 11:35:44;;;;;;;;;3.67;1.00;;;;;;;;5077109;27;45320;-70
2023/11/24 11:38:12;;;;;;;;;4.33;2.67;;;;;;;;5076849;28;46508;-70
2023/11/24 11:40:38;;;;;;;;;6.67;2.00;;;;;;;;5076112;27;45469;-67
2023/11/24 11:43:09;;;;;;;;;3.33;2.00;;;;;;;;5071519;27;45485;-68
2023/11/24 11:45:49;;;;;;;;;3.67;2.33;;;;;;;;5072120;27;45495;-70
2023/11/24 11:48:14;;;;;;;;;5.00;3.00;;;;;;;;5070777;28;46473;-67
2023/11/24 11:51:01;;;;;;;;;1.00;1.00;;;;;;;;5072728;27;45435;-69
2023/11/24 11:53:31;;;;;;;;;8.67;2.00;;;;;;;;5070257;28;45403;-70
2023/11/24 11:55:56;;;;;;;;;5.00;1.00;;;;;;;;5074362;27;45549;-68
2023/11/24 11:58:25;;;;;;;;;0.00;0.00;;;;;;;;5074573;27;46478;-69
2023/11/24 12:00:51;;;;;;;;;2.00;2.00;;;;;;;;5072448;27;45488;-68
2023/11/24 12:03:19;;;;;;;;;5.33;2.00;;;;;;;;5074301;28;45616;-69
2023/11/24 12:05:47;;;;;;;;;4.67;3.00;;;;;;;;5075319;27;45674;-70
2023/11/24 12:08:14;;;;;;;;;4.00;3.00;;;;;;;;5071945;27;46726;-67
2023/11/24 12:10:42;;;;;;;;;4.33;4.00;;;;;;;;5074115;27;45360;-67
2023/11/24 12:13:08;;;;;;;;;6.33;3.33;;;;;;;;5073370;28;45536;-70
2023/11/24 12:15:34;;;;;;;;;3.00;1.00;;;;;;;;5074493;27;45379;-70
2023/11/24 12:17:59;;;;;;;;;5.67;2.00;;;;;;;;5069770;27;46559;-70
2023/11/24 12:20:24;;;;;;;;;5.00;2.67;;;;;;;;5067737;27;45457;-67
2023/11/24 12:22:51;;;;;;;;;5.00;3.00;;;;;;;;5067403;27;45328;-68
2023/11/24 12:25:16;;;;;;;;;5.00;3.00;;;;;;;;5070127;27;45395;-69
2023/11/24 12:27:42;;;;;;;;;4.00;1.00;;;;;;;;5066076;28;46426;-68
2023/11/24 12:30:10;;;;;;;;;6.00;5.00;;;;;;;;5070649;27;45489;-71
2023/11/24 12:32:36;;;;;;;;;3.67;2.33;;;;;;;;5074000;27;45337;-69
2023/11/24 12:35:01;;;;;;;;;2.00;2.00;;;;;;;;5076528;27;45493;-70
2023/11/24 12:37:27;;;;;;;;;2.67;2.67;;;;;;;;5072329;27;46353;-69
2023/11/24 12:39:53;;;;;;;;;3.33;3.00;;;;;;;;5072064;27;45207;-68
2023/11/24 12:42:18;;;;;;;;;6.67;4.00;;;;;;;;5073008;27;45596;-68
2023/11/24 12:44:43;;;;;;;;;5.33;3.00;;;;;;;;5069773;27;46013;-68
2023/11/24 12:47:13;;;;;;;;;5.00;3.33;;;;;;;;5067490;27;46076;-69
2023/11/24 12:49:56;;;;;;;;;5.33;2.67;;;;;;;;5070924;27;46070;-69
2023/11/24 12:52:21;;;;;;;;;4.33;4.00;;;;;;;;5072181;27;45477;-68
2023/11/24 12:54:47;;;;;;;;;5.00;2.33;;;;;;;;5075304;27;45693;-67
2023/11/24 12:57:12;;;;;;;;;2.67;2.00;;;;;;;;5072772;27;45486;-68
2023/11/24 12:59:37;;;;;;;;;2.33;2.00;;;;;;;;5073207;27;45554;-70
2023/11/24 13:02:02;;;;;;;;;5.67;3.33;;;;;;;;5073000;27;45496;-71
2023/11/24 13:04:27;;;;;;;;;2.67;1.67;;;;;;;;5072780;27;45452;-69
2023/11/24 13:06:53;;;;;;;;;5.33;4.00;;;;;;;;5076298;27;47466;-68
2023/11/24 13:09:18;;;;;;;;;7.33;4.67;;;;;;;;5075102;27;46177;-68
2023/11/24 13:11:43;;;;;;;;;5.33;3.00;;;;;;;;5076943;27;45654;-69
2023/11/24 13:14:11;;;;;;;;;8.00;3.33;;;;;;;;5077619;27;46015;-69
2023/11/24 13:16:36;;;;;;;;;1.67;1.33;;;;;;;;5076517;27;45738;-68
2023/11/24 13:19:02;;;;;;;;;4.00;2.00;;;;;;;;5078024;27;45390;-70
2023/11/24 13:21:27;;;;;;;;;8.67;6.00;;;;;;;;5077471;27;45480;-67
2023/11/24 13:23:53;;;;;;;;;9.00;3.00;;;;;;;;5076397;27;45628;-68
2023/11/24 13:26:19;;;;;;;;;3.33;2.33;;;;;;;;5076224;27;45528;-70
2023/11/24 13:28:44;;;;;;;;;6.33;4.33;;;;;;;;5076174;28;45412;-72
2023/11/24 13:31:09;;;;;;;;;4.33;3.67;;;;;;;;5076131;27;45624;-70
2023/11/24 13:33:37;;;;;;;;;5.67;4.00;;;;;;;;5075085;27;45454;-68
2023/11/24 13:36:02;;;;;;;;;6.00;3.00;;;;;;;;5074934;27;45497;-67
2023/11/24 13:38:27;;;;;;;;;6.33;3.00;;;;;;;;5075903;27;45488;-68
2023/11/24 13:40:54;;;;;;;;;3.00;3.00;;;;;;;;5076197;27;45505;-70
2023/11/24 13:43:19;;;;;;;;;3.00;3.00;;;;;;;;5076972;27;45568;-69
2023/11/24 13:45:45;;;;;;;;;5.00;2.00;;;;;;;;5076110;27;45625;-69
2023/11/24 13:48:12;;;;;;;;;5.00;2.00;;;;;;;;5073446;27;45425;-72
2023/11/24 13:50:37;;;;;;;;;5.00;4.00;;;;;;;;5076579;27;45446;-71
2023/11/24 13:53:03;;;;;;;;;7.33;5.00;;;;;;;;5076397;28;45464;-70
2023/11/24 13:55:33;;;;;;;;;11.33;4.00;;;;;;;;5075157;27;45555;-70
2023/11/24 13:57:58;;;;;;;;;6.00;5.00;;;;;;;;5075571;27;45501;-69
2023/11/24 14:00:23;;;;;;;;;14.33;11.33;;;;;;;;5076878;27;45561;-70
2023/11/24 14:02:48;;;;;;;;;8.67;8.67;;;;;;;;5076298;27;45647;-70
2023/11/24 14:05:13;;;;;;;;;9.00;6.00;;;;;;;;5076157;27;45593;-70
2023/11/24 14:07:39;;;;;;;;;14.33;10.00;;;;;;;;5073818;27;45681;-69
2023/11/24 14:10:06;;;;;;;;;12.67;8.67;;;;;;;;5075050;27;45481;-69
2023/11/24 14:12:31;;;;;;;;;17.00;14.00;;;;;;;;5074255;27;46840;-70
2023/11/24 14:14:56;;;;;;;;;5.00;5.00;;;;;;;;5075190;27;46294;-69
2023/11/24 14:17:22;;;;;;;;;8.00;7.33;;;;;;;;5073926;27;45732;-70
2023/11/24 14:19:48;;;;;;;;;5.33;5.33;;;;;;;;5075006;27;45284;-70
2023/11/24 14:22:13;;;;;;;;;3.67;3.00;;;;;;;;5075987;27;45598;-69
2023/11/24 14:24:38;;;;;;;;;14.00;8.67;;;;;;;;5073556;27;46657;-69
2023/11/24 14:27:03;;;;;;;;;4.67;2.33;;;;;;;;5074993;27;45460;-69
2023/11/24 14:29:31;;;;;;;;;10.33;7.67;;;;;;;;5073336;27;45707;-70
2023/11/24 14:31:56;;;;;;;;;12.00;8.33;;;;;;;;5072951;27;45496;-69
2023/11/24 14:34:21;;;;;;;;;8.00;5.00;;;;;;;;5074476;27;47369;-70